Time;durP1;ratioP1;P1;durP2;ratioP2;P2;SDS_P1;SDS_P2;PMS_P1;PMS_P2;Temp;Humidity;BMP_temperature;BMP_pressure;BME280_temperature;BME280_humidity;BME280_pressure;Samples;Min_cycle;Max_cycle;Signal;HPM_P1;HPM_P2
2021/05/14 00:00:47;;;;;;;0.10;0.10;;;;;;;;;;5014230;28;20187;-63
2021/05/14 00:03:15;;;;;;;0.00;0.00;;;;;;;;;;5012255;28;20208;-63
2021/05/14 00:05:42;;;;;;;0.00;0.00;;;;;;;;;;5014063;28;20254;-64
2021/05/14 00:08:08;;;;;;;0.00;0.00;;;;;;;;;;5014724;28;20176;-64
2021/05/14 00:10:38;;;;;;;0.13;0.13;;;;;;;;;;5012991;28;20462;-64
2021/05/14 00:13:05;;;;;;;0.00;0.00;;;;;;;;;;5014923;28;21496;-63
2021/05/14 00:15:31;;;;;;;0.00;0.00;;;;;;;;;;5011995;28;20272;-64
2021/05/14 00:17:59;;;;;;;0.00;0.00;;;;;;;;;;5013944;28;21199;-64
2021/05/14 00:20:27;;;;;;;0.10;0.10;;;;;;;;;;5011868;28;20199;-64
2021/05/14 00:22:53;;;;;;;0.00;0.00;;;;;;;;;;5013350;28;20191;-63
2021/05/14 00:25:20;;;;;;;0.00;0.00;;;;;;;;;;5016347;28;20188;-63
2021/05/14 00:27:48;;;;;;;33.40;1.40;;;;;;;;;;5014549;28;20295;-62
2021/05/14 00:30:15;;;;;;;0.00;0.00;;;;;;;;;;5013677;28;20276;-66
2021/05/14 00:32:44;;;;;;;0.00;0.00;;;;;;;;;;5011972;28;20199;-65
2021/05/14 00:35:11;;;;;;;0.03;0.03;;;;;;;;;;5014515;28;20185;-67
2021/05/14 00:37:38;;;;;;;22.10;1.00;;;;;;;;;;5013353;28;20177;-66
2021/05/14 00:40:06;;;;;;;0.20;0.20;;;;;;;;;;5011392;28;20194;-67
2021/05/14 00:42:32;;;;;;;0.00;0.00;;;;;;;;;;5015570;28;20191;-67
2021/05/14 00:45:00;;;;;;;0.00;0.00;;;;;;;;;;5014794;28;20381;-67
2021/05/14 00:47:27;;;;;;;0.00;0.00;;;;;;;;;;5015645;28;20287;-67
2021/05/14 00:49:54;;;;;;;0.10;0.10;;;;;;;;;;5017359;28;20204;-67
2021/05/14 00:52:21;;;;;;;0.00;0.00;;;;;;;;;;5015929;28;20247;-67
2021/05/14 00:54:48;;;;;;;0.00;0.00;;;;;;;;;;5016700;28;20181;-67
2021/05/14 00:57:16;;;;;;;0.00;0.00;;;;;;;;;;5015757;28;20180;-67
2021/05/14 00:59:46;;;;;;;0.50;0.10;;;;;;;;;;5016596;28;20207;-67
2021/05/14 01:02:15;;;;;;;1.90;0.97;;;;;;;;;;5015894;28;20271;-67
2021/05/14 01:04:42;;;;;;;0.00;0.00;;;;;;;;;;5016869;28;20276;-67
2021/05/14 01:07:09;;;;;;;0.00;0.00;;;;;;;;;;5017003;28;20184;-67
2021/05/14 01:09:36;;;;;;;0.00;0.00;;;;;;;;;;5015450;28;20172;-67
2021/05/14 01:12:03;;;;;;;0.97;0.10;;;;;;;;;;5018784;28;20881;-66
2021/05/14 01:14:30;;;;;;;0.00;0.00;;;;;;;;;;5016572;28;21109;-66
2021/05/14 01:16:57;;;;;;;0.00;0.00;;;;;;;;;;5016335;28;20200;-66
2021/05/14 01:19:23;;;;;;;1.33;0.73;;;;;;;;;;5013505;28;20223;-67
2021/05/14 01:21:51;;;;;;;9.50;1.17;;;;;;;;;;5016408;28;20242;-66
2021/05/14 01:24:20;;;;;;;0.00;0.00;;;;;;;;;;5015199;28;20660;-66
2021/05/14 01:26:46;;;;;;;0.00;0.00;;;;;;;;;;5014753;28;20186;-66
2021/05/14 01:29:13;;;;;;;0.13;0.13;;;;;;;;;;5013954;28;20282;-66
2021/05/14 01:31:40;;;;;;;0.63;0.63;;;;;;;;;;5013984;28;20180;-67
2021/05/14 01:34:08;;;;;;;2.87;0.77;;;;;;;;;;5011456;28;20188;-67
2021/05/14 01:36:36;;;;;;;0.00;0.00;;;;;;;;;;5015341;28;20894;-67
2021/05/14 01:39:12;;;;;;;2.73;0.63;;;;;;;;;;5016354;28;20204;-67
2021/05/14 01:41:39;;;;;;;0.00;0.00;;;;;;;;;;5014902;28;20192;-66
2021/05/14 01:44:07;;;;;;;0.47;0.13;;;;;;;;;;5021033;28;20590;-66
2021/05/14 01:46:35;;;;;;;0.30;0.30;;;;;;;;;;5011384;28;20200;-66
2021/05/14 01:49:02;;;;;;;0.00;0.00;;;;;;;;;;5014497;28;20229;-66
2021/05/14 01:51:29;;;;;;;1.13;0.30;;;;;;;;;;5016244;28;20184;-66
2021/05/14 01:53:56;;;;;;;0.27;0.27;;;;;;;;;;5011280;28;20200;-66
2021/05/14 01:56:23;;;;;;;0.10;0.10;;;;;;;;;;5015184;28;20262;-66
2021/05/14 01:58:50;;;;;;;0.00;0.00;;;;;;;;;;5016133;28;20180;-66
2021/05/14 02:01:17;;;;;;;0.00;0.00;;;;;;;;;;5015809;28;20585;-66
2021/05/14 02:03:44;;;;;;;0.00;0.00;;;;;;;;;;5015169;28;20204;-66
2021/05/14 02:06:11;;;;;;;0.00;0.00;;;;;;;;;;5015439;28;20196;-67
2021/05/14 02:08:38;;;;;;;0.10;0.10;;;;;;;;;;5014734;28;20216;-66
2021/05/14 02:11:09;;;;;;;0.00;0.00;;;;;;;;;;5016768;28;20176;-66
2021/05/14 02:13:36;;;;;;;0.00;0.00;;;;;;;;;;5032805;28;20219;-66
2021/05/14 02:16:04;;;;;;;0.00;0.00;;;;;;;;;;5020428;28;20670;-66
2021/05/14 02:18:30;;;;;;;0.00;0.00;;;;;;;;;;5019061;28;20757;-66
2021/05/14 02:20:57;;;;;;;0.00;0.00;;;;;;;;;;5019834;28;20192;-66
2021/05/14 02:23:24;;;;;;;0.47;0.17;;;;;;;;;;5018730;28;20219;-66
2021/05/14 02:25:50;;;;;;;0.10;0.10;;;;;;;;;;5018910;28;20195;-67
2021/05/14 02:28:17;;;;;;;0.10;0.10;;;;;;;;;;5016823;28;20673;-66
2021/05/14 02:30:44;;;;;;;0.10;0.10;;;;;;;;;;5018343;28;20183;-66
2021/05/14 02:33:11;;;;;;;0.00;0.00;;;;;;;;;;5019224;28;20735;-66
2021/05/14 02:35:37;;;;;;;0.00;0.00;;;;;;;;;;5017900;28;20709;-67
2021/05/14 02:38:04;;;;;;;0.00;0.00;;;;;;;;;;5019127;28;20180;-66
2021/05/14 02:40:31;;;;;;;0.00;0.00;;;;;;;;;;5017879;28;20747;-66
2021/05/14 02:42:58;;;;;;;1.60;0.57;;;;;;;;;;5019571;28;20191;-65
2021/05/14 02:45:25;;;;;;;0.00;0.00;;;;;;;;;;5021187;28;20262;-66
2021/05/14 02:47:52;;;;;;;0.00;0.00;;;;;;;;;;5019671;28;20210;-66
2021/05/14 02:50:18;;;;;;;1.03;0.60;;;;;;;;;;5023174;28;20195;-66
2021/05/14 02:52:45;;;;;;;0.00;0.00;;;;;;;;;;5017762;28;20330;-66
2021/05/14 02:55:12;;;;;;;0.77;0.07;;;;;;;;;;5020599;28;20269;-66
2021/05/14 02:57:42;;;;;;;0.00;0.00;;;;;;;;;;5017282;28;20191;-66
2021/05/14 03:00:09;;;;;;;0.23;0.23;;;;;;;;;;5017283;28;20180;-66
2021/05/14 03:02:36;;;;;;;0.00;0.00;;;;;;;;;;5017026;28;20890;-66
2021/05/14 03:05:03;;;;;;;0.00;0.00;;;;;;;;;;5018682;28;20208;-67
2021/05/14 03:07:30;;;;;;;0.00;0.00;;;;;;;;;;5017156;28;20760;-66
2021/05/14 03:09:57;;;;;;;0.10;0.10;;;;;;;;;;5018623;28;20214;-67
2021/05/14 03:12:25;;;;;;;0.00;0.00;;;;;;;;;;5017499;28;20180;-66
2021/05/14 03:14:51;;;;;;;0.13;0.13;;;;;;;;;;5019237;28;20238;-66
2021/05/14 03:17:18;;;;;;;0.00;0.00;;;;;;;;;;5017619;28;20188;-66
2021/05/14 03:19:44;;;;;;;0.00;0.00;;;;;;;;;;5015155;28;20318;-66
2021/05/14 03:22:11;;;;;;;0.00;0.00;;;;;;;;;;5015322;28;20180;-66
2021/05/14 03:24:38;;;;;;;2.10;1.40;;;;;;;;;;5015662;28;20212;-67
2021/05/14 03:27:05;;;;;;;0.20;0.20;;;;;;;;;;5016357;28;20184;-66
2021/05/14 03:29:31;;;;;;;0.00;0.00;;;;;;;;;;5016771;28;20186;-66
2021/05/14 03:31:58;;;;;;;0.00;0.00;;;;;;;;;;5018405;28;20185;-67
2021/05/14 03:34:24;;;;;;;0.00;0.00;;;;;;;;;;5020254;28;20824;-67
2021/05/14 03:36:51;;;;;;;0.10;0.10;;;;;;;;;;5019509;28;20197;-66
2021/05/14 03:39:22;;;;;;;0.10;0.10;;;;;;;;;;5019996;28;20614;-66
2021/05/14 03:41:51;;;;;;;0.00;0.00;;;;;;;;;;5019416;28;20288;-66
2021/05/14 03:44:20;;;;;;;0.40;0.40;;;;;;;;;;5017163;28;20192;-66
2021/05/14 03:46:46;;;;;;;0.00;0.00;;;;;;;;;;5015502;28;20669;-65
2021/05/14 03:49:13;;;;;;;0.00;0.00;;;;;;;;;;5015457;28;20188;-66
2021/05/14 03:51:40;;;;;;;0.00;0.00;;;;;;;;;;5012538;28;20905;-66
2021/05/14 03:54:06;;;;;;;0.00;0.00;;;;;;;;;;5014708;28;20271;-66
2021/05/14 03:56:33;;;;;;;0.00;0.00;;;;;;;;;;5015094;28;20952;-65
2021/05/14 03:59:00;;;;;;;0.00;0.00;;;;;;;;;;5015595;28;20377;-65
2021/05/14 04:01:30;;;;;;;0.50;0.50;;;;;;;;;;5016200;28;20207;-65
2021/05/14 04:03:56;;;;;;;0.00;0.00;;;;;;;;;;5018360;28;20441;-66
2021/05/14 04:06:25;;;;;;;1.40;1.17;;;;;;;;;;5017443;28;20192;-66
2021/05/14 04:08:51;;;;;;;0.00;0.00;;;;;;;;;;5019527;28;20180;-65
2021/05/14 04:11:31;;;;;;;0.87;0.73;;;;;;;;;;5018363;28;20203;-66
2021/05/14 04:16:42;;;;;;;0.00;0.00;;;;;;;;;;5013862;28;20254;-66
2021/05/14 04:19:09;;;;;;;0.20;0.20;;;;;;;;;;5019454;28;20643;-65
2021/05/14 04:21:35;;;;;;;0.10;0.10;;;;;;;;;;5018987;28;20258;-66
2021/05/14 04:24:03;;;;;;;0.27;0.27;;;;;;;;;;5018746;28;20682;-66
2021/05/14 04:26:29;;;;;;;0.13;0.13;;;;;;;;;;5019803;28;20187;-66
2021/05/14 04:28:56;;;;;;;0.00;0.00;;;;;;;;;;5017479;28;20287;-66
2021/05/14 04:31:22;;;;;;;0.00;0.00;;;;;;;;;;5016575;28;20672;-66
2021/05/14 04:33:49;;;;;;;0.00;0.00;;;;;;;;;;5015545;28;20246;-65
2021/05/14 04:36:16;;;;;;;0.10;0.10;;;;;;;;;;5015787;28;20277;-65
2021/05/14 04:38:42;;;;;;;0.00;0.00;;;;;;;;;;5013481;28;20219;-66
2021/05/14 04:41:09;;;;;;;0.10;0.10;;;;;;;;;;5014845;28;20284;-66
2021/05/14 04:43:35;;;;;;;0.00;0.00;;;;;;;;;;5015777;28;20502;-65
2021/05/14 04:46:02;;;;;;;0.00;0.00;;;;;;;;;;5016202;28;20218;-66
2021/05/14 04:48:28;;;;;;;0.53;0.37;;;;;;;;;;5014636;28;20184;-66
2021/05/14 04:50:55;;;;;;;0.00;0.00;;;;;;;;;;5013068;28;21045;-66
2021/05/14 04:53:28;;;;;;;0.00;0.00;;;;;;;;;;5013740;28;20214;-66
2021/05/14 04:55:54;;;;;;;0.00;0.00;;;;;;;;;;5014334;28;20265;-66
2021/05/14 04:58:21;;;;;;;0.00;0.00;;;;;;;;;;5015142;28;20184;-66
2021/05/14 13:06:42;;;;;;;0.53;0.37;;;;;;;;;;5089994;27;20614;-66
2021/05/14 13:09:15;;;;;;;0.40;0.00;;;;;;;;;;5077422;28;20181;-65
2021/05/14 13:11:43;;;;;;;0.20;0.20;;;;;;;;;;5075291;28;20223;-66
2021/05/14 13:14:12;;;;;;;0.07;0.07;;;;;;;;;;5070468;28;20961;-66
2021/05/14 13:16:39;;;;;;;0.00;0.00;;;;;;;;;;5082134;28;20181;-65
2021/05/14 13:19:05;;;;;;;0.57;0.57;;;;;;;;;;5075961;28;20206;-66
2021/05/14 13:21:32;;;;;;;0.23;0.10;;;;;;;;;;5074144;28;20196;-65
2021/05/14 13:23:59;;;;;;;0.20;0.20;;;;;;;;;;5077649;28;20198;-66
2021/05/14 13:26:26;;;;;;;0.10;0.07;;;;;;;;;;5071183;28;20312;-66
2021/05/14 13:28:52;;;;;;;0.00;0.00;;;;;;;;;;5070883;28;20186;-66
2021/05/14 13:31:20;;;;;;;0.17;0.17;;;;;;;;;;5074435;28;20815;-66
2021/05/14 13:33:50;;;;;;;1.10;0.50;;;;;;;;;;5080181;28;20208;-65
2021/05/14 13:36:17;;;;;;;0.00;0.00;;;;;;;;;;5071586;28;20284;-66
2021/05/14 13:38:45;;;;;;;0.27;0.27;;;;;;;;;;5086980;28;20292;-65
2021/05/14 13:41:12;;;;;;;2.13;0.40;;;;;;;;;;5074505;28;20192;-67
2021/05/14 13:43:38;;;;;;;2.13;0.50;;;;;;;;;;5063475;28;20192;-66
2021/05/14 13:46:06;;;;;;;0.47;0.43;;;;;;;;;;5078063;28;20205;-66
2021/05/14 13:48:32;;;;;;;0.43;0.40;;;;;;;;;;5075392;28;20740;-66
2021/05/14 13:50:59;;;;;;;0.10;0.10;;;;;;;;;;5075189;28;20188;-67
2021/05/14 13:53:26;;;;;;;0.93;0.23;;;;;;;;;;5088057;28;20217;-66
2021/05/14 13:55:54;;;;;;;0.10;0.00;;;;;;;;;;5075655;28;20243;-66
2021/05/14 13:58:21;;;;;;;1.80;0.63;;;;;;;;;;5093677;28;20185;-65
2021/05/14 14:00:47;;;;;;;0.60;0.50;;;;;;;;;;5073994;28;21103;-66
2021/05/14 14:03:14;;;;;;;3.70;3.03;;;;;;;;;;5074990;28;20202;-65
2021/05/14 14:05:44;;;;;;;0.77;0.13;;;;;;;;;;5093413;28;20232;-67
2021/05/14 14:08:11;;;;;;;0.33;0.23;;;;;;;;;;5074433;28;20178;-67
2021/05/14 14:10:38;;;;;;;0.10;0.10;;;;;;;;;;5075471;28;20184;-68
2021/05/14 14:13:08;;;;;;;0.77;0.37;;;;;;;;;;5080070;28;20193;-67
2021/05/14 14:15:34;;;;;;;0.63;0.23;;;;;;;;;;5087568;28;20195;-67
2021/05/14 14:18:01;;;;;;;0.27;0.03;;;;;;;;;;5069442;28;20661;-67
2021/05/14 14:20:28;;;;;;;0.93;0.40;;;;;;;;;;5072895;28;20197;-67
2021/05/14 14:22:54;;;;;;;0.67;0.33;;;;;;;;;;5061775;28;20786;-66
2021/05/14 14:25:21;;;;;;;0.20;0.20;;;;;;;;;;5060845;28;20994;-68
2021/05/14 14:27:47;;;;;;;0.00;0.00;;;;;;;;;;5060827;28;20588;-68
2021/05/14 14:30:15;;;;;;;0.00;0.00;;;;;;;;;;5061020;28;20410;-68
2021/05/14 14:32:43;;;;;;;0.33;0.20;;;;;;;;;;5062624;28;20186;-67
2021/05/14 14:35:13;;;;;;;0.87;0.40;;;;;;;;;;5067542;28;20745;-67
2021/05/14 14:37:41;;;;;;;0.67;0.13;;;;;;;;;;5068709;28;20206;-67
2021/05/14 14:40:10;;;;;;;0.13;0.13;;;;;;;;;;5067497;28;20197;-66
2021/05/14 14:42:38;;;;;;;0.97;0.40;;;;;;;;;;5075328;28;20189;-67
2021/05/14 14:45:05;;;;;;;0.00;0.00;;;;;;;;;;5060335;28;20341;-66
2021/05/14 14:47:32;;;;;;;0.00;0.00;;;;;;;;;;5069375;28;20189;-67
2021/05/14 14:49:59;;;;;;;0.77;0.40;;;;;;;;;;5068155;28;20247;-68
2021/05/14 14:52:25;;;;;;;0.53;0.40;;;;;;;;;;5077072;28;20181;-67
2021/05/14 14:54:52;;;;;;;0.73;0.60;;;;;;;;;;5078263;28;20189;-67
2021/05/14 14:57:18;;;;;;;0.27;0.00;;;;;;;;;;5061841;28;20189;-68
2021/05/14 14:59:45;;;;;;;0.13;0.10;;;;;;;;;;5064932;28;20178;-67
2021/05/14 15:02:12;;;;;;;0.30;0.30;;;;;;;;;;5059294;28;21185;-67
2021/05/14 15:04:38;;;;;;;0.40;0.40;;;;;;;;;;5056057;28;20241;-67
2021/05/14 15:07:05;;;;;;;0.43;0.40;;;;;;;;;;5058662;28;20362;-66
2021/05/14 15:09:32;;;;;;;0.00;0.00;;;;;;;;;;5041651;28;20186;-66
2021/05/14 15:11:59;;;;;;;0.30;0.20;;;;;;;;;;5060515;28;20189;-68
2021/05/14 15:14:26;;;;;;;0.07;0.07;;;;;;;;;;5058656;28;20185;-67
2021/05/14 15:16:52;;;;;;;1.23;0.50;;;;;;;;;;5061052;28;20187;-66
2021/05/14 15:19:20;;;;;;;0.20;0.10;;;;;;;;;;5058963;28;20182;-68
2021/05/14 15:21:47;;;;;;;4.17;0.50;;;;;;;;;;5059708;28;20206;-67
2021/05/14 15:24:14;;;;;;;0.40;0.40;;;;;;;;;;5066352;28;20189;-67
2021/05/14 15:26:40;;;;;;;0.20;0.20;;;;;;;;;;5063841;28;20248;-67
2021/05/14 15:29:07;;;;;;;2.67;0.83;;;;;;;;;;5067089;28;20180;-67
2021/05/14 15:31:34;;;;;;;0.30;0.23;;;;;;;;;;5064966;28;20187;-66
2021/05/14 15:34:01;;;;;;;1.30;0.67;;;;;;;;;;5061861;28;20183;-65
2021/05/14 15:36:27;;;;;;;0.40;0.10;;;;;;;;;;5065375;28;20281;-66
2021/05/14 15:38:55;;;;;;;1.07;0.47;;;;;;;;;;5060465;28;20303;-67
2021/05/14 15:41:21;;;;;;;0.80;0.37;;;;;;;;;;5060434;28;20169;-66
2021/05/14 15:43:48;;;;;;;0.33;0.17;;;;;;;;;;5063116;28;20775;-68
2021/05/14 15:46:15;;;;;;;0.30;0.30;;;;;;;;;;5059885;28;20240;-68
2021/05/14 15:48:43;;;;;;;0.00;0.00;;;;;;;;;;5065365;28;20195;-68
2021/05/14 15:51:09;;;;;;;2.47;0.37;;;;;;;;;;5060611;28;20201;-67
2021/05/14 15:53:36;;;;;;;0.57;0.37;;;;;;;;;;5056071;28;20189;-67
2021/05/14 15:56:03;;;;;;;7.87;1.23;;;;;;;;;;5064349;28;20247;-68
2021/05/14 16:31:37;;;;;;;0.00;0.00;;;;;;;;;;5375134;23;20241;-61
2021/05/14 16:34:04;;;;;;;0.93;0.93;;;;;;;;;;4976125;28;20188;-62
2021/05/14 16:36:31;;;;;;;0.90;0.90;;;;;;;;;;4971827;28;20526;-63
2021/05/14 16:38:57;;;;;;;0.00;0.00;;;;;;;;;;4977049;28;20184;-62
2021/05/14 16:41:24;;;;;;;0.30;0.30;;;;;;;;;;4978575;28;20994;-61
2021/05/14 16:43:50;;;;;;;1.90;0.37;;;;;;;;;;4970710;28;20180;-62
2021/05/14 16:46:17;;;;;;;0.00;0.00;;;;;;;;;;4969553;28;20244;-62
2021/05/14 16:48:44;;;;;;;4.03;0.27;;;;;;;;;;4981711;28;20241;-62
2021/05/14 16:51:11;;;;;;;3.40;1.27;;;;;;;;;;4974268;28;20192;-62
2021/05/14 16:53:38;;;;;;;0.53;0.30;;;;;;;;;;4974934;28;20857;-62
2021/05/14 16:56:05;;;;;;;1.13;0.67;;;;;;;;;;4971583;28;20294;-63
2021/05/14 16:58:32;;;;;;;2.17;1.13;;;;;;;;;;4976893;28;20225;-62
2021/05/14 17:00:58;;;;;;;0.73;0.30;;;;;;;;;;4975659;28;20211;-62
2021/05/14 17:03:25;;;;;;;0.73;0.57;;;;;;;;;;4983555;28;20203;-63
2021/05/14 17:05:54;;;;;;;1.20;1.20;;;;;;;;;;4974862;28;20666;-61
2021/05/14 17:08:21;;;;;;;0.40;0.30;;;;;;;;;;4967182;28;20243;-61
2021/05/14 17:10:48;;;;;;;2.37;2.27;;;;;;;;;;4970957;28;20191;-62
2021/05/14 17:13:14;;;;;;;6.23;1.67;;;;;;;;;;4964927;28;20196;-62
2021/05/14 17:15:41;;;;;;;6.13;0.93;;;;;;;;;;4972851;28;20206;-61
2021/05/14 17:18:08;;;;;;;0.47;0.30;;;;;;;;;;4974324;28;20256;-61
2021/05/14 17:20:34;;;;;;;0.33;0.20;;;;;;;;;;4969795;28;20204;-61
2021/05/14 17:23:01;;;;;;;0.00;0.00;;;;;;;;;;4973694;28;20199;-62
2021/05/14 17:25:27;;;;;;;2.10;1.67;;;;;;;;;;4976113;28;20216;-62
2021/05/14 17:27:54;;;;;;;0.00;0.00;;;;;;;;;;4978198;28;20195;-62
2021/05/14 17:30:21;;;;;;;1.27;0.30;;;;;;;;;;4969094;28;20603;-62
2021/05/14 17:32:48;;;;;;;0.20;0.20;;;;;;;;;;4967959;28;20220;-62
2021/05/14 17:35:14;;;;;;;0.00;0.00;;;;;;;;;;4975658;28;20196;-62
2021/05/14 17:37:41;;;;;;;0.27;0.10;;;;;;;;;;4973887;28;20849;-62
2021/05/14 17:40:08;;;;;;;0.53;0.40;;;;;;;;;;4971550;28;20188;-62
2021/05/14 17:42:34;;;;;;;1.40;0.70;;;;;;;;;;4970691;28;20327;-62
2021/05/14 17:45:01;;;;;;;0.83;0.77;;;;;;;;;;4974521;28;20214;-62
2021/05/14 17:47:28;;;;;;;0.30;0.10;;;;;;;;;;4972910;28;20188;-61
2021/05/14 17:49:55;;;;;;;2.13;2.03;;;;;;;;;;4973514;28;20637;-62
2021/05/14 17:52:21;;;;;;;0.73;0.40;;;;;;;;;;4980485;28;20224;-62
2021/05/14 17:54:48;;;;;;;2.20;0.50;;;;;;;;;;4973433;28;21041;-61
2021/05/14 17:57:14;;;;;;;0.23;0.23;;;;;;;;;;4980055;28;20278;-62
2021/05/14 17:59:42;;;;;;;5.97;1.17;;;;;;;;;;4968210;28;20195;-62
2021/05/14 18:02:08;;;;;;;0.10;0.10;;;;;;;;;;4969539;28;20522;-62
2021/05/14 18:04:35;;;;;;;1.70;0.60;;;;;;;;;;4974396;28;20654;-62
2021/05/14 18:07:02;;;;;;;1.90;0.77;;;;;;;;;;4978564;28;20183;-62
2021/05/14 18:09:29;;;;;;;8.40;0.97;;;;;;;;;;4979824;28;20192;-62
2021/05/14 18:11:56;;;;;;;0.10;0.00;;;;;;;;;;4980384;28;20193;-62
2021/05/14 18:14:30;;;;;;;0.43;0.20;;;;;;;;;;4975523;28;20191;-62
2021/05/14 18:16:57;;;;;;;1.13;0.23;;;;;;;;;;4972893;28;20197;-62
2021/05/14 18:21:50;;;;;;;0.17;0.17;;;;;;;;;;4973856;28;20198;-62
2021/05/14 18:24:16;;;;;;;0.53;0.53;;;;;;;;;;4979015;28;20200;-62
2021/05/14 18:26:43;;;;;;;2.07;0.40;;;;;;;;;;4982483;28;20310;-62
2021/05/14 18:29:10;;;;;;;0.43;0.17;;;;;;;;;;4982115;28;20196;-62
2021/05/14 18:31:36;;;;;;;0.27;0.17;;;;;;;;;;4976636;28;20252;-62
2021/05/14 18:34:08;;;;;;;0.30;0.30;;;;;;;;;;4975990;28;20298;-62
2021/05/14 18:36:38;;;;;;;0.57;0.20;;;;;;;;;;4974138;28;20201;-62
2021/05/14 18:39:05;;;;;;;0.30;0.30;;;;;;;;;;4972812;28;20201;-62
2021/05/14 18:41:32;;;;;;;0.00;0.00;;;;;;;;;;4978097;28;20204;-62
2021/05/14 18:43:59;;;;;;;1.83;1.27;;;;;;;;;;4978346;28;20750;-62
2021/05/14 18:46:26;;;;;;;6.53;0.47;;;;;;;;;;4974438;28;20213;-62
2021/05/14 18:48:52;;;;;;;1.30;0.60;;;;;;;;;;4983514;28;20220;-62
2021/05/14 18:51:19;;;;;;;3.60;0.73;;;;;;;;;;4982119;28;20224;-62
2021/05/14 18:53:46;;;;;;;0.20;0.20;;;;;;;;;;4985370;28;20246;-63
2021/05/14 18:56:13;;;;;;;0.10;0.10;;;;;;;;;;4985171;28;20959;-62
2021/05/14 18:58:40;;;;;;;1.80;0.37;;;;;;;;;;4980329;28;20345;-62
2021/05/14 19:01:07;;;;;;;4.00;0.50;;;;;;;;;;4976266;28;21007;-62
2021/05/14 19:03:33;;;;;;;0.20;0.20;;;;;;;;;;4978795;28;20281;-62
2021/05/14 19:06:00;;;;;;;0.20;0.10;;;;;;;;;;4978189;28;20211;-62
2021/05/14 19:08:28;;;;;;;0.63;0.10;;;;;;;;;;4983428;28;20622;-62
2021/05/14 19:10:54;;;;;;;0.50;0.13;;;;;;;;;;4975798;28;20200;-62
2021/05/14 19:13:21;;;;;;;1.60;0.80;;;;;;;;;;4969503;28;20227;-61
2021/05/14 19:15:48;;;;;;;4.03;0.43;;;;;;;;;;4974314;28;20192;-62
2021/05/14 19:18:16;;;;;;;1.90;0.73;;;;;;;;;;4974810;28;20187;-61
2021/05/14 19:20:45;;;;;;;0.00;0.00;;;;;;;;;;4969526;28;20191;-62
2021/05/14 19:44:59;;;;;;;0.00;0.00;;;;;;;;;;4945917;28;20558;-62
2021/05/14 19:47:34;;;;;;;1.13;1.13;;;;;;;;;;4956571;28;20204;-62
2021/05/14 19:50:01;;;;;;;3.37;0.63;;;;;;;;;;4969332;28;20193;-62
2021/05/14 19:52:28;;;;;;;2.90;0.33;;;;;;;;;;4977306;28;20239;-62
2021/05/14 19:54:54;;;;;;;0.10;0.10;;;;;;;;;;4984385;28;20221;-61
2021/05/14 19:57:21;;;;;;;6.30;0.73;;;;;;;;;;4980748;28;20312;-61
2021/05/14 19:59:47;;;;;;;0.13;0.13;;;;;;;;;;4969955;28;20620;-62
2021/05/14 20:02:14;;;;;;;0.10;0.10;;;;;;;;;;4982040;28;20279;-61
2021/05/14 20:04:41;;;;;;;10.10;2.83;;;;;;;;;;4973986;28;20241;-62
2021/05/14 20:07:08;;;;;;;1.00;0.30;;;;;;;;;;4969794;28;20297;-62
2021/05/14 20:09:35;;;;;;;0.00;0.00;;;;;;;;;;4964902;28;20190;-62
2021/05/14 20:12:02;;;;;;;0.00;0.00;;;;;;;;;;4979523;28;20749;-62
2021/05/14 20:14:30;;;;;;;0.10;0.10;;;;;;;;;;4973208;28;20193;-62
2021/05/14 20:16:57;;;;;;;0.30;0.30;;;;;;;;;;4964385;28;20204;-62
2021/05/14 20:19:24;;;;;;;1.97;0.10;;;;;;;;;;4978550;28;20225;-62
2021/05/14 20:21:53;;;;;;;0.63;0.63;;;;;;;;;;4976568;28;20192;-62
2021/05/14 20:24:21;;;;;;;2.03;1.23;;;;;;;;;;4967526;28;20272;-62
2021/05/14 20:26:47;;;;;;;4.10;0.63;;;;;;;;;;4974725;28;20224;-62
2021/05/14 20:29:14;;;;;;;0.00;0.00;;;;;;;;;;4973362;28;20273;-63
2021/05/14 20:31:40;;;;;;;0.30;0.00;;;;;;;;;;4971548;28;20579;-63
2021/05/14 20:34:07;;;;;;;3.03;1.10;;;;;;;;;;4964682;28;20266;-63
2021/05/14 20:36:45;;;;;;;0.00;0.00;;;;;;;;;;4978799;28;20654;-62
2021/05/14 20:41:47;;;;;;;1.47;0.73;;;;;;;;;;4966877;28;20224;-62
2021/05/14 20:44:17;;;;;;;2.43;0.40;;;;;;;;;;4963846;28;20664;-62
2021/05/14 20:46:44;;;;;;;0.10;0.00;;;;;;;;;;4966444;28;20225;-63
2021/05/14 20:49:10;;;;;;;2.73;1.53;;;;;;;;;;4972648;28;20199;-62
2021/05/14 20:51:37;;;;;;;0.97;0.53;;;;;;;;;;4980290;28;20197;-62
2021/05/14 20:54:05;;;;;;;1.07;0.30;;;;;;;;;;4968987;28;20185;-62
2021/05/14 20:56:32;;;;;;;5.17;0.67;;;;;;;;;;4978968;28;20671;-62
2021/05/14 20:59:00;;;;;;;1.03;0.20;;;;;;;;;;4982375;28;21080;-62
2021/05/14 21:01:26;;;;;;;0.63;0.20;;;;;;;;;;4982383;28;20282;-62
2021/05/14 21:03:53;;;;;;;1.60;0.37;;;;;;;;;;4982336;28;20460;-62
2021/05/14 21:06:20;;;;;;;0.57;0.30;;;;;;;;;;4982476;28;21057;-65
2021/05/14 21:08:46;;;;;;;1.03;0.50;;;;;;;;;;4979694;28;20673;-63
2021/05/14 21:11:13;;;;;;;2.10;1.47;;;;;;;;;;4967765;28;20195;-64
2021/05/14 21:13:40;;;;;;;0.00;0.00;;;;;;;;;;4960343;28;20249;-64
2021/05/14 21:16:08;;;;;;;0.73;0.20;;;;;;;;;;4961147;28;20191;-64
2021/05/14 21:18:34;;;;;;;0.23;0.10;;;;;;;;;;4972592;28;20189;-63
2021/05/14 21:21:01;;;;;;;0.50;0.43;;;;;;;;;;4981648;28;20214;-63
2021/05/14 21:23:29;;;;;;;1.00;1.00;;;;;;;;;;4981664;28;20190;-64
2021/05/14 21:25:55;;;;;;;5.20;0.87;;;;;;;;;;4969593;28;20743;-62
2021/05/14 21:28:22;;;;;;;17.47;0.83;;;;;;;;;;4971518;28;20276;-65
2021/05/14 21:30:48;;;;;;;1.50;0.80;;;;;;;;;;4977047;28;20222;-62
2021/05/14 21:33:15;;;;;;;0.23;0.17;;;;;;;;;;4977772;28;20252;-63
2021/05/14 21:35:42;;;;;;;6.83;5.20;;;;;;;;;;4973054;28;20269;-64
2021/05/14 21:38:08;;;;;;;0.20;0.20;;;;;;;;;;4979727;28;20194;-63
2021/05/14 21:40:35;;;;;;;1.40;0.87;;;;;;;;;;4982204;28;20280;-64
2021/05/14 21:43:02;;;;;;;3.13;2.83;;;;;;;;;;4979056;28;20193;-64
2021/05/14 21:45:28;;;;;;;12.47;1.27;;;;;;;;;;4975857;28;20310;-64
2021/05/14 21:47:55;;;;;;;0.87;0.43;;;;;;;;;;4984089;28;20186;-64
2021/05/14 21:50:23;;;;;;;6.37;1.53;;;;;;;;;;4974761;28;20198;-66
2021/05/14 21:52:51;;;;;;;1.00;0.70;;;;;;;;;;4979968;28;20197;-65
2021/05/14 21:55:18;;;;;;;2.70;0.50;;;;;;;;;;4974785;28;20944;-64
2021/05/14 21:57:49;;;;;;;0.73;0.43;;;;;;;;;;4977708;28;20200;-64
2021/05/14 22:00:18;;;;;;;0.17;0.17;;;;;;;;;;4981111;28;20182;-64
2021/05/14 22:02:45;;;;;;;3.90;1.80;;;;;;;;;;4983217;28;20197;-64
2021/05/14 22:05:13;;;;;;;0.43;0.43;;;;;;;;;;4980396;28;20268;-65
2021/05/14 22:07:40;;;;;;;1.60;1.20;;;;;;;;;;4976574;28;20854;-64
2021/05/14 22:10:07;;;;;;;5.53;1.70;;;;;;;;;;4988915;28;20193;-65
2021/05/14 22:12:34;;;;;;;2.43;0.40;;;;;;;;;;4976384;28;20193;-65
2021/05/14 22:15:01;;;;;;;8.03;1.37;;;;;;;;;;4979705;28;20240;-63
2021/05/14 22:17:28;;;;;;;0.20;0.20;;;;;;;;;;4979368;28;20180;-64
2021/05/14 22:19:54;;;;;;;1.53;1.00;;;;;;;;;;4971126;28;20782;-64
2021/05/14 22:22:21;;;;;;;0.50;0.43;;;;;;;;;;4967026;28;20189;-64
2021/05/14 22:24:47;;;;;;;0.73;0.20;;;;;;;;;;4964351;28;20635;-64
2021/05/14 22:27:14;;;;;;;0.33;0.00;;;;;;;;;;4968832;28;20189;-63
2021/05/14 22:29:43;;;;;;;0.03;0.03;;;;;;;;;;4978383;28;20186;-64
2021/05/14 22:32:09;;;;;;;0.00;0.00;;;;;;;;;;4985195;28;20241;-63
2021/05/14 22:34:41;;;;;;;2.40;1.70;;;;;;;;;;4982629;28;20189;-62
2021/05/14 22:37:10;;;;;;;4.00;1.50;;;;;;;;;;4976493;28;20196;-63
2021/05/14 22:39:37;;;;;;;0.00;0.00;;;;;;;;;;4974667;28;20186;-62
2021/05/14 22:42:04;;;;;;;4.33;3.90;;;;;;;;;;4975890;28;20276;-62
2021/05/14 22:44:30;;;;;;;0.70;0.10;;;;;;;;;;4967478;28;20194;-62
2021/05/14 22:46:57;;;;;;;0.00;0.00;;;;;;;;;;4978718;28;20217;-62
2021/05/14 22:49:24;;;;;;;0.20;0.10;;;;;;;;;;4975153;28;20202;-64
2021/05/14 22:51:50;;;;;;;0.00;0.00;;;;;;;;;;4976658;28;20181;-63
2021/05/14 22:54:17;;;;;;;0.00;0.00;;;;;;;;;;4980135;28;20196;-63
2021/05/14 22:56:43;;;;;;;0.00;0.00;;;;;;;;;;4976943;28;20841;-63
2021/05/14 22:59:10;;;;;;;1.83;0.50;;;;;;;;;;4975313;28;20190;-63
2021/05/14 23:01:37;;;;;;;0.00;0.00;;;;;;;;;;4978840;28;20201;-62
2021/05/14 23:04:04;;;;;;;0.00;0.00;;;;;;;;;;4980190;28;20239;-62
2021/05/14 23:06:31;;;;;;;3.10;0.30;;;;;;;;;;4973905;28;20213;-62
2021/05/14 23:08:57;;;;;;;0.00;0.00;;;;;;;;;;4976493;28;20244;-61
2021/05/14 23:11:24;;;;;;;0.23;0.20;;;;;;;;;;4979158;28;20201;-62
2021/05/14 23:13:52;;;;;;;0.00;0.00;;;;;;;;;;4973188;28;20229;-61
2021/05/14 23:16:18;;;;;;;1.53;1.53;;;;;;;;;;4973201;28;21127;-61
2021/05/14 23:18:45;;;;;;;0.20;0.20;;;;;;;;;;4979561;28;20610;-61
2021/05/14 23:21:12;;;;;;;0.00;0.00;;;;;;;;;;4973671;28;20269;-61
2021/05/14 23:23:38;;;;;;;0.00;0.00;;;;;;;;;;4974015;28;20248;-61
2021/05/14 23:26:05;;;;;;;0.70;0.40;;;;;;;;;;4979452;28;20241;-61
2021/05/14 23:28:32;;;;;;;0.00;0.00;;;;;;;;;;4975603;28;20188;-61
2021/05/14 23:30:58;;;;;;;0.60;0.27;;;;;;;;;;4974688;28;20203;-61
2021/05/14 23:33:25;;;;;;;0.00;0.00;;;;;;;;;;4978054;28;20217;-61
2021/05/14 23:35:52;;;;;;;0.00;0.00;;;;;;;;;;4976318;28;20218;-61
2021/05/14 23:38:19;;;;;;;0.00;0.00;;;;;;;;;;4974964;28;20236;-61
2021/05/14 23:40:45;;;;;;;2.30;1.07;;;;;;;;;;4976557;28;20276;-62
2021/05/14 23:43:13;;;;;;;0.63;0.50;;;;;;;;;;4971065;28;20742;-61
2021/05/14 23:45:40;;;;;;;0.00;0.00;;;;;;;;;;4973839;28;20600;-61
2021/05/14 23:48:09;;;;;;;0.00;0.00;;;;;;;;;;4978112;28;20197;-61
2021/05/14 23:50:36;;;;;;;0.00;0.00;;;;;;;;;;4974370;28;20255;-62